createdAt,value
2023-08-30T00:00:20.019Z,26.6
2023-08-30T00:05:56.613Z,26.6
2023-08-30T00:11:32.594Z,26.6
2023-08-30T00:16:53.476Z,26.6
2023-08-30T00:22:13.208Z,26.6
2023-08-30T00:27:33.982Z,26.6
2023-08-30T00:32:56.037Z,26.6
2023-08-30T00:38:16.853Z,26.6
2023-08-30T00:43:37.793Z,26.6
2023-08-30T00:48:44.147Z,26.6
2023-08-30T00:54:21.057Z,26.6
2023-08-30T01:00:00.518Z,26.7
2023-08-30T01:05:37.247Z,26.7
2023-08-30T01:10:57.754Z,26.7
2023-08-30T01:16:19.125Z,26.7
2023-08-30T01:21:55.348Z,26.7
2023-08-30T01:27:31.641Z,26.7
2023-08-30T01:33:23.141Z,26.7
2023-08-30T01:38:59.826Z,26.7
2023-08-30T01:44:50.466Z,26.7
2023-08-30T01:50:42.391Z,26.7
2023-08-30T01:56:18.299Z,26.8
2023-08-30T02:02:09.449Z,26.8
2023-08-30T02:08:01.062Z,26.7
2023-08-30T02:13:37.075Z,26.8
2023-08-30T02:19:30.296Z,26.8
2023-08-30T02:25:10.983Z,26.7
2023-08-30T02:30:47.391Z,26.8
2023-08-30T02:36:23.567Z,26.8
2023-08-30T02:42:00.041Z,26.8
2023-08-30T02:47:39.216Z,26.8
2023-08-30T02:53:15.394Z,26.8
2023-08-30T02:59:07.580Z,26.8
2023-08-30T03:04:59.116Z,26.8
2023-08-30T03:10:52.724Z,26.8
2023-08-30T03:16:44.472Z,26.8
2023-08-30T03:22:36.618Z,26.8
2023-08-30T03:28:28.277Z,26.8
2023-08-30T03:34:20.532Z,26.8
2023-08-30T03:39:56.504Z,26.8
2023-08-30T03:45:17.174Z,26.8
2023-08-30T03:50:39.362Z,26.8
2023-08-30T03:56:00.828Z,26.8
2023-08-30T04:01:39.369Z,26.8
2023-08-30T04:07:17.029Z,26.6
2023-08-30T04:12:37.918Z,26.5
2023-08-30T04:18:16.750Z,26.5
2023-08-30T04:23:41.119Z,26.4
2023-08-30T04:28:47.489Z,26.3
2023-08-30T04:34:24.111Z,26.3
2023-08-30T04:40:27.565Z,26.1
2023-08-30T04:46:20.638Z,26.1
2023-08-30T04:52:13.581Z,26.1
2023-08-30T04:58:05.985Z,25.9
2023-08-30T05:03:58.519Z,25.8
2023-08-30T05:09:50.183Z,25.8
2023-08-30T05:15:42.019Z,25.7
2023-08-30T05:21:21.213Z,25.6
2023-08-30T05:27:14.792Z,25.6
2023-08-30T05:33:06.966Z,25.6
2023-08-30T05:38:59.737Z,25.4
2023-08-30T05:44:51.132Z,25.4
2023-08-30T05:50:43.001Z,25.4
2023-08-30T05:56:34.633Z,25.4
2023-08-30T06:02:28.151Z,25.4
2023-08-30T06:08:20.145Z,25.4
2023-08-30T06:14:10.786Z,25.4
2023-08-30T06:20:01.752Z,25.4
2023-08-30T06:25:53.824Z,25.4
2023-08-30T06:31:43.587Z,25.4
2023-08-30T06:37:35.183Z,25.3
2023-08-30T06:43:29.427Z,25.3
2023-08-30T06:49:05.844Z,25.4
2023-08-30T06:54:42.844Z,25.4
2023-08-30T07:00:19.298Z,25.4
2023-08-30T07:05:55.285Z,25.4
2023-08-30T07:11:49.254Z,25.4
2023-08-30T07:17:29.202Z,25.4
2023-08-30T07:23:13.735Z,25.4
2023-08-30T07:28:51.471Z,25.4
2023-08-30T07:34:44.164Z,25.4
2023-08-30T07:40:54.158Z,25.4
2023-08-30T07:46:50.440Z,25.5
2023-08-30T07:52:59.943Z,25.5
2023-08-30T07:58:51.544Z,25.5
2023-08-30T08:04:55.814Z,25.6
2023-08-30T08:10:48.094Z,25.6
2023-08-30T08:16:40.220Z,25.6
2023-08-30T08:22:17.439Z,25.6
2023-08-30T08:28:12.364Z,25.6
2023-08-30T08:34:03.474Z,25.6
2023-08-30T08:39:57.087Z,25.6
2023-08-30T08:46:00.874Z,25.6
2023-08-30T08:51:37.975Z,25.7
2023-08-30T08:57:52.094Z,25.8
2023-08-30T09:04:05.175Z,25.7
2023-08-30T09:09:55.369Z,25.8
2023-08-30T09:15:58.237Z,25.8
2023-08-30T09:22:04.810Z,25.8
2023-08-30T09:27:56.675Z,25.8
2023-08-30T09:34:01.908Z,25.8
2023-08-30T09:39:54.046Z,25.9
2023-08-30T09:46:08.905Z,25.9
2023-08-30T09:52:13.104Z,25.9
2023-08-30T10:35:23.697Z,25.9
2023-08-30T10:41:14.317Z,26.1
2023-08-30T10:47:26.427Z,26.1
2023-08-30T10:53:18.864Z,26.1
2023-08-30T10:59:10.337Z,26.1
2023-08-30T11:05:19.836Z,26.1
2023-08-30T11:10:56.903Z,26.1
2023-08-30T11:16:48.926Z,26.2
2023-08-30T11:22:39.536Z,26.2
2023-08-30T11:28:18.076Z,26.2
2023-08-30T11:33:54.834Z,26.2
2023-08-30T11:39:14.649Z,26.2
2023-08-30T11:45:04.234Z,26.3
2023-08-30T11:50:48.643Z,26.3
2023-08-30T11:56:24.529Z,26.3
2023-08-30T12:02:01.261Z,26.4
2023-08-30T12:07:53.757Z,26.3
2023-08-30T12:13:45.188Z,26.4
2023-08-30T12:19:22.260Z,26.4
2023-08-30T12:24:58.979Z,26.4
2023-08-30T12:30:49.289Z,26.4
2023-08-30T12:36:26.321Z,26.4
2023-08-30T12:42:05.562Z,26.5
2023-08-30T12:47:42.057Z,26.5
2023-08-30T12:53:19.013Z,26.6
2023-08-30T12:59:11.389Z,26.6
2023-08-30T13:04:49.133Z,26.6
2023-08-30T13:10:41.303Z,26.5
2023-08-30T13:16:17.771Z,26.6
2023-08-30T13:21:47.712Z,26.6
2023-08-30T13:27:24.599Z,26.7
2023-08-30T13:33:01.629Z,26.7
2023-08-30T13:38:37.848Z,26.8
2023-08-30T13:44:19.045Z,26.8
2023-08-30T13:49:56.221Z,26.9
2023-08-30T13:55:31.978Z,26.8
2023-08-30T14:01:08.745Z,26.7
2023-08-30T14:06:46.036Z,26.6
2023-08-30T14:12:40.556Z,26.6
2023-08-30T14:18:34.554Z,26.6
2023-08-30T14:24:11.398Z,26.6
2023-08-30T14:30:06.089Z,26.6
2023-08-30T14:36:00.015Z,26.6
2023-08-30T14:41:37.369Z,26.6
2023-08-30T14:47:45.995Z,26.6
2023-08-30T14:53:39.446Z,26.7
2023-08-30T14:59:35.023Z,26.6
2023-08-30T15:05:27.608Z,26.6
2023-08-30T15:11:21.288Z,26.6
2023-08-30T15:17:14.006Z,26.7
2023-08-30T15:23:06.510Z,26.7
2023-08-30T15:28:58.425Z,26.6
2023-08-30T15:34:52.638Z,26.6
2023-08-30T15:40:28.234Z,26.6
2023-08-30T15:46:20.310Z,26.6
2023-08-30T15:52:09.726Z,26.6
2023-08-30T15:58:01.325Z,26.6
2023-08-30T16:03:54.271Z,26.6
2023-08-30T16:09:48.412Z,26.6
2023-08-30T16:15:40.191Z,26.7
2023-08-30T16:21:32.417Z,26.7
2023-08-30T16:27:25.034Z,26.7
2023-08-30T16:33:16.963Z,26.7
2023-08-30T16:39:09.746Z,26.7
2023-08-30T16:45:05.637Z,26.7
2023-08-30T16:51:20.496Z,26.6
2023-08-30T16:57:12.535Z,26.7
2023-08-30T17:03:07.645Z,26.6
2023-08-30T17:08:59.547Z,26.6
2023-08-30T17:14:52.305Z,26.6
2023-08-30T17:20:46.859Z,26.6
2023-08-30T17:26:07.399Z,26.6
2023-08-30T17:31:44.243Z,26.6
2023-08-30T17:37:42.581Z,26.5
2023-08-30T17:43:34.248Z,26.5
2023-08-30T17:49:18.190Z,26.4
2023-08-30T17:54:54.917Z,26.4
2023-08-30T18:00:45.886Z,26.4
2023-08-30T18:06:23.751Z,26.4
2023-08-30T18:12:18.262Z,26.4
2023-08-30T18:17:54.459Z,26.3
2023-08-30T18:23:46.879Z,26.3
2023-08-30T18:29:08.919Z,26.3
2023-08-30T18:35:01.117Z,26.3
2023-08-30T18:41:02.143Z,26.2
2023-08-30T18:46:57.181Z,26.2
2023-08-30T18:52:35.180Z,26.1
2023-08-30T18:58:15.374Z,26.1
2023-08-30T19:03:38.647Z,26.1
2023-08-30T19:09:31.878Z,26.1
2023-08-30T19:15:26.635Z,26
2023-08-30T19:21:20.867Z,25.9
2023-08-30T19:26:58.022Z,25.9
2023-08-30T19:32:36.597Z,25.9
2023-08-30T19:38:30.335Z,25.8
2023-08-30T19:44:23.101Z,25.8
2023-08-30T19:50:17.025Z,25.8
2023-08-30T19:56:09.920Z,25.7
2023-08-30T20:02:06.180Z,25.6
2023-08-30T20:07:59.078Z,25.6
2023-08-30T20:13:51.133Z,25.6
2023-08-30T20:19:45.444Z,25.5
2023-08-30T20:25:22.468Z,25.5
2023-08-30T20:31:01.301Z,25.5
2023-08-30T20:37:00.111Z,25.4
2023-08-30T20:43:03.115Z,25.4
2023-08-30T20:48:40.067Z,25.4
2023-08-30T20:54:16.758Z,25.4
2023-08-30T21:00:25.158Z,25.3
2023-08-30T21:06:18.141Z,25.2
2023-08-30T21:12:09.764Z,25.2
2023-08-30T21:17:53.605Z,25.1
2023-08-30T21:23:30.925Z,25.1
2023-08-30T21:29:23.232Z,25
2023-08-30T21:35:17.067Z,25
2023-08-30T21:41:09.204Z,25.1
2023-08-30T21:47:02.154Z,25.1
2023-08-30T21:52:54.249Z,25.1
2023-08-30T21:58:46.452Z,25.1
2023-08-30T22:04:38.830Z,25.2
2023-08-30T22:10:31.036Z,25.2
2023-08-30T22:16:28.196Z,25.2
2023-08-30T22:22:04.268Z,25.3
2023-08-30T22:27:56.498Z,25.3
2023-08-30T22:33:48.927Z,25.3
2023-08-30T22:39:41.880Z,25.3
2023-08-30T22:45:18.720Z,25.3
2023-08-30T22:51:10.852Z,25.3
2023-08-30T22:57:12.516Z,25.4
2023-08-30T23:03:05.776Z,25.4
2023-08-30T23:08:42.435Z,25.4
2023-08-30T23:14:34.328Z,25.4
2023-08-30T23:20:11.003Z,25.4
2023-08-30T23:25:47.729Z,25.4
2023-08-30T23:31:37.997Z,25.4
2023-08-30T23:37:29.948Z,25.5
2023-08-30T23:43:25.558Z,25.5
2023-08-30T23:49:18.135Z,25.5
2023-08-30T23:54:54.745Z,25.5
